Time;durP1;ratioP1;P1;durP2;ratioP2;P2;SDS_P1;SDS_P2;PMS_P1;PMS_P2;Temp;Humidity;BMP_temperature;BMP_pressure;BME280_temperature;BME280_humidity;BME280_pressure;Samples;Min_cycle;Max_cycle;Signal;HPM_P1;HPM_P2
2023/06/20 00:02:02;;;;;;;6.00;4.65;;;;;;;27.27;50.48;101105.88;5075568;28;20542;-56
2023/06/20 00:04:30;;;;;;;7.25;4.45;;;;;;;27.27;50.46;101103.16;5075818;28;20376;-56
2023/06/20 00:06:58;;;;;;;5.63;4.55;;;;;;;27.27;50.83;101111.31;5075588;28;20052;-56
2023/06/20 00:09:25;;;;;;;5.82;4.63;;;;;;;27.26;50.94;101110.44;5075381;28;20044;-55
2023/06/20 00:11:52;;;;;;;5.10;4.60;;;;;;;27.28;50.64;101104.84;5075714;28;20048;-50
2023/06/20 00:14:20;;;;;;;5.57;4.78;;;;;;;27.26;51.00;101107.72;5075492;28;20049;-53
2023/06/20 00:16:47;;;;;;;6.13;4.68;;;;;;;27.25;50.93;101108.75;5075738;28;20047;-53
2023/06/20 00:19:14;;;;;;;5.60;4.78;;;;;;;27.25;51.17;101110.63;5075022;28;20048;-55
2023/06/20 00:21:42;;;;;;;5.65;4.45;;;;;;;27.26;51.01;101125.91;5075752;28;20048;-53
2023/06/20 00:24:09;;;;;;;5.45;4.68;;;;;;;27.26;51.15;101112.31;5075764;28;20404;-51
2023/06/20 00:26:37;;;;;;;5.13;3.97;;;;;;;27.26;51.16;101112.31;5075564;28;20052;-54
2023/06/20 00:29:04;;;;;;;5.05;4.55;;;;;;;27.25;51.08;101110.63;5075319;28;20041;-51
2023/06/20 00:31:32;;;;;;;4.90;4.40;;;;;;;27.25;51.32;101114.19;5073861;28;20052;-56
2023/06/20 00:33:59;;;;;;;5.38;4.88;;;;;;;27.25;51.17;101116.06;5073923;28;20048;-57
2023/06/20 00:36:27;;;;;;;8.07;4.70;;;;;;;27.26;51.30;101104.16;5074982;28;20048;-56
2023/06/20 00:38:55;;;;;;;6.28;4.75;;;;;;;27.24;51.11;101109.78;5074898;28;20047;-57
2023/06/20 00:41:23;;;;;;;5.15;4.65;;;;;;;27.24;51.22;101108.94;5075442;28;20439;-52
2023/06/20 00:43:50;;;;;;;5.65;4.40;;;;;;;27.25;51.11;101105.19;5075283;28;20420;-54
2023/06/20 00:46:25;;;;;;;5.10;4.60;;;;;;;27.25;50.68;101111.47;5073886;28;20400;-53
2023/06/20 00:48:54;;;;;;;7.00;4.45;;;;;;;27.25;50.67;101105.19;5075230;28;20681;-51
2023/06/20 00:51:22;;;;;;;5.50;4.72;;;;;;;27.25;50.40;101107.91;5074199;28;20492;-52
2023/06/20 00:53:50;;;;;;;6.15;4.53;;;;;;;27.24;50.43;101109.78;5073639;28;20059;-54
2023/06/20 00:56:18;;;;;;;5.60;4.93;;;;;;;27.22;50.20;101111.81;5074906;28;20048;-54
2023/06/20 00:58:46;;;;;;;5.38;4.25;;;;;;;27.24;50.48;101119.81;5074382;28;20045;-53
2023/06/20 01:01:16;;;;;;;5.75;4.75;;;;;;;27.24;50.35;101122.53;5074562;28;20058;-57
2023/06/20 01:03:46;;;;;;;5.93;4.68;;;;;;;27.22;50.41;101111.81;5074479;28;20048;-57
2023/06/20 01:06:32;;;;;;;4.82;4.10;;;;;;;27.23;50.27;101118.13;5073089;28;20060;-56
2023/06/20 01:09:06;;;;;;;5.78;4.78;;;;;;;27.22;50.31;101114.53;5074702;28;20044;-57
2023/06/20 01:11:47;;;;;;;5.47;4.75;;;;;;;27.22;50.19;101119.13;5074688;28;20495;-57
2023/06/20 01:14:46;;;;;;;5.13;4.45;;;;;;;27.22;50.07;101109.09;5074602;28;20048;-57
2023/06/20 01:17:21;;;;;;;5.57;4.55;;;;;;;27.22;49.89;101110.97;5074612;28;20052;-56
2023/06/20 01:19:53;;;;;;;4.90;4.35;;;;;;;27.22;49.55;101108.25;5073153;28;20041;-56
2023/06/20 01:22:41;;;;;;;6.05;4.68;;;;;;;27.21;49.31;101114.72;5074602;28;20055;-56
2023/06/20 01:25:24;;;;;;;5.07;4.57;;;;;;;27.21;49.16;101118.28;5074648;28;20048;-56
2023/06/20 01:28:26;;;;;;;6.00;4.90;;;;;;;27.20;48.71;101113.88;5073271;28;20423;-56
2023/06/20 01:31:05;;;;;;;5.10;4.53;;;;;;;27.21;48.73;101109.28;5069297;28;20052;-54
2023/06/20 01:33:42;;;;;;;5.88;4.68;;;;;;;27.20;48.45;101105.75;5074431;28;20044;-52
2023/06/20 01:36:11;;;;;;;4.85;4.22;;;;;;;27.19;48.33;101105.94;5073273;28;20049;-51
2023/06/20 01:38:44;;;;;;;5.35;4.57;;;;;;;27.19;48.42;101092.34;5074018;28;20408;-53
2023/06/20 01:41:19;;;;;;;5.25;4.30;;;;;;;27.18;48.10;101096.06;5073077;28;20052;-52
2023/06/20 01:43:48;;;;;;;5.45;4.20;;;;;;;27.19;48.13;101087.75;5072874;28;20052;-54
2023/06/20 01:46:18;;;;;;;5.57;4.43;;;;;;;27.19;47.95;101105.94;5074204;28;20064;-52
2023/06/20 01:48:48;;;;;;;4.97;4.45;;;;;;;27.18;47.99;101105.06;5074024;28;20048;-51
2023/06/20 01:51:17;;;;;;;4.63;3.95;;;;;;;27.18;47.86;101104.22;5073258;28;20372;-51
2023/06/20 01:53:46;;;;;;;4.82;4.05;;;;;;;27.18;47.99;101098.78;5073840;28;20040;-51
2023/06/20 01:56:15;;;;;;;4.72;3.85;;;;;;;27.17;48.03;101097.94;5073772;28;20048;-50
2023/06/20 01:58:43;;;;;;;5.13;4.10;;;;;;;27.17;48.10;101087.06;5072910;28;20416;-50
2023/06/20 02:01:12;;;;;;;5.65;4.53;;;;;;;27.17;47.96;101086.22;5072524;28;20040;-55
2023/06/20 02:03:41;;;;;;;5.55;3.92;;;;;;;27.17;48.16;101092.50;5073719;28;20049;-55
2023/06/20 02:06:13;;;;;;;5.05;3.97;;;;;;;27.17;48.19;101108.81;5073995;28;20052;-54
2023/06/20 02:08:40;;;;;;;5.20;4.28;;;;;;;27.17;47.73;101094.38;5073238;28;20044;-55
2023/06/20 02:11:08;;;;;;;4.95;4.03;;;;;;;27.19;47.78;101100.50;5073591;28;20040;-52
2023/06/20 02:13:36;;;;;;;4.88;3.83;;;;;;;27.17;47.63;101091.66;5073586;28;20055;-50
2023/06/20 02:16:08;;;;;;;6.22;4.63;;;;;;;27.18;47.51;101098.78;5072582;28;20056;-51
2023/06/20 02:18:37;;;;;;;5.22;4.35;;;;;;;27.17;47.57;101102.53;5073560;28;20074;-51
2023/06/20 02:21:07;;;;;;;4.72;4.13;;;;;;;27.15;47.56;101108.16;5073164;28;20064;-56
2023/06/20 02:23:37;;;;;;;5.80;4.15;;;;;;;27.16;47.21;101101.69;5073424;28;20499;-55
2023/06/20 02:26:11;;;;;;;6.00;4.00;;;;;;;27.15;47.18;101093.72;5072135;28;20063;-56
2023/06/20 02:28:42;;;;;;;4.95;4.00;;;;;;;27.15;47.25;101100.00;5073236;28;20055;-52
2023/06/20 02:31:14;;;;;;;5.63;4.85;;;;;;;27.15;47.30;101110.88;5072310;28;20044;-56
2023/06/20 02:33:43;;;;;;;;;;;;;;;27.13;47.33;101104.75;5073560;28;20051;-55
2023/06/20 02:36:12;;;;;;;6.60;4.32;;;;;;;27.14;47.47;101097.44;5072078;28;20295;-55
2023/06/20 02:38:40;;;;;;;5.97;4.82;;;;;;;27.13;47.39;101102.03;5072916;28;20056;-55
2023/06/20 02:41:09;;;;;;;7.32;5.22;;;;;;;27.14;47.36;101105.59;5072676;28;20388;-56
2023/06/20 02:43:36;;;;;;;4.50;3.90;;;;;;;27.13;47.58;101112.06;5073114;28;20052;-56
2023/06/20 02:46:19;;;;;;;5.65;4.28;;;;;;;27.14;47.22;101113.75;5073720;28;20045;-57
2023/06/20 02:49:19;;;;;;;5.82;4.80;;;;;;;27.14;47.45;101120.00;5071851;28;20048;-57
2023/06/20 02:52:02;;;;;;;5.15;4.65;;;;;;;27.13;47.45;101114.78;5050981;28;20052;-57
2023/06/20 02:54:51;;;;;;;4.88;3.97;;;;;;;27.11;47.30;101121.25;5071851;28;20520;-56
2023/06/20 02:57:20;;;;;;;5.07;4.57;;;;;;;27.14;47.86;101127.31;5071938;28;20420;-57
2023/06/20 02:59:58;;;;;;;5.50;5.00;;;;;;;27.13;47.88;101123.75;5071788;28;20048;-55
2023/06/20 03:02:29;;;;;;;5.65;5.05;;;;;;;27.13;47.60;101128.34;5073291;28;20497;-57
2023/06/20 03:05:00;;;;;;;5.72;4.43;;;;;;;27.12;47.86;101122.09;5077121;28;20051;-57
2023/06/20 03:07:33;;;;;;;4.88;4.25;;;;;;;27.11;47.75;101131.25;5075566;28;20523;-57
2023/06/20 03:10:06;;;;;;;5.93;5.38;;;;;;;27.13;47.50;101139.22;5075092;28;20044;-56
2023/06/20 03:12:34;;;;;;;5.38;4.40;;;;;;;27.11;47.40;101145.69;5075808;28;20049;-51
2023/06/20 03:15:01;;;;;;;5.10;4.05;;;;;;;27.11;47.49;101139.41;5059230;28;20052;-54
2023/06/20 03:17:29;;;;;;;5.38;4.63;;;;;;;27.11;47.41;101144.84;5075799;28;20385;-54
2023/06/20 03:19:56;;;;;;;4.78;4.28;;;;;;;27.10;47.49;101146.72;5076658;28;20511;-53
2023/06/20 03:22:24;;;;;;;6.28;4.47;;;;;;;27.13;47.78;101155.53;5075739;28;20056;-57
2023/06/20 03:24:51;;;;;;;5.20;4.35;;;;;;;27.10;47.66;101154.88;5076776;28;20407;-56
2023/06/20 03:27:18;;;;;;;6.32;4.43;;;;;;;27.11;47.69;101153.00;5076752;28;20048;-56
2023/06/20 03:29:46;;;;;;;6.85;4.80;;;;;;;27.11;47.34;101153.00;5075404;28;20060;-56
2023/06/20 03:32:13;;;;;;;5.13;4.32;;;;;;;27.09;47.41;101155.84;5075324;28;20044;-57
2023/06/20 03:34:40;;;;;;;5.50;3.40;;;;;;;27.09;47.22;101166.72;5075212;28;20420;-57
2023/06/20 03:37:08;;;;;;;4.60;4.20;;;;;;;27.09;47.42;101158.56;5076437;28;20049;-57
2023/06/20 03:39:35;;;;;;;5.05;4.07;;;;;;;27.09;47.09;101164.00;5076527;28;20063;-56
2023/06/20 03:42:03;;;;;;;5.13;4.35;;;;;;;27.08;47.00;101170.47;5075580;28;20053;-54
2023/06/20 03:44:33;;;;;;;4.97;4.03;;;;;;;27.08;46.87;101170.47;5075175;28;20052;-54
2023/06/20 03:47:01;;;;;;;5.20;4.55;;;;;;;27.08;46.79;101173.19;5076143;28;20055;-55
2023/06/20 03:49:29;;;;;;;4.90;4.38;;;;;;;27.08;47.18;101178.63;5074892;28;20052;-53
2023/06/20 03:51:56;;;;;;;4.95;4.45;;;;;;;27.08;46.80;101177.78;5075148;28;20055;-57
2023/06/20 03:54:24;;;;;;;5.03;4.32;;;;;;;27.09;46.66;101179.47;5075331;28;20404;-57
2023/06/20 03:56:51;;;;;;;5.85;4.63;;;;;;;27.07;46.74;101174.22;5076262;28;20045;-57
2023/06/20 03:59:19;;;;;;;5.13;4.28;;;;;;;27.08;46.62;101169.63;5076022;28;20052;-57
2023/06/20 04:01:50;;;;;;;4.68;3.50;;;;;;;27.07;46.59;101170.66;5074262;28;20484;-56
2023/06/20 04:04:18;;;;;;;4.15;3.67;;;;;;;27.07;46.89;101179.66;5074830;28;20059;-56
2023/06/20 04:06:49;;;;;;;4.70;3.63;;;;;;;27.07;46.86;101174.22;5075768;28;20048;-57
2023/06/20 04:09:17;;;;;;;4.65;3.85;;;;;;;27.07;47.10;101168.78;5075917;28;20052;-57
2023/06/20 04:11:45;;;;;;;5.03;4.15;;;;;;;27.08;47.33;101170.47;5074469;28;20067;-57
2023/06/20 04:14:13;;;;;;;4.82;4.28;;;;;;;27.07;47.10;101157.91;5074006;28;20060;-56
2023/06/20 04:16:40;;;;;;;5.28;4.15;;;;;;;27.08;47.43;101164.19;5075748;28;20052;-57
2023/06/20 04:19:08;;;;;;;5.00;3.97;;;;;;;27.07;47.24;101166.06;5074348;28;20049;-57
2023/06/20 04:21:36;;;;;;;4.70;3.58;;;;;;;27.07;47.13;101152.47;5074476;28;20397;-55
2023/06/20 04:24:03;;;;;;;5.78;4.00;;;;;;;27.08;46.96;101156.03;5074598;28;20067;-52
2023/06/20 04:26:31;;;;;;;4.05;3.58;;;;;;;27.07;46.96;101155.19;5074485;28;20480;-51
2023/06/20 04:28:58;;;;;;;4.88;3.92;;;;;;;27.07;47.17;101155.19;5074205;28;20067;-52
2023/06/20 04:31:29;;;;;;;4.72;3.75;;;;;;;27.07;47.06;101149.75;5058411;28;20071;-55
2023/06/20 04:34:00;;;;;;;4.68;4.20;;;;;;;27.06;46.79;101150.78;5074265;28;20075;-53
2023/06/20 04:36:28;;;;;;;6.03;3.80;;;;;;;27.07;47.18;101157.06;5074365;28;20056;-54
2023/06/20 04:39:00;;;;;;;5.90;4.32;;;;;;;27.07;47.02;101157.06;5074352;28;20052;-54
2023/06/20 04:41:27;;;;;;;5.20;4.32;;;;;;;27.06;47.14;101149.91;5074167;28;20044;-57
2023/06/20 04:43:54;;;;;;;6.38;3.90;;;;;;;27.06;47.18;101150.78;5073799;28;20049;-57
2023/06/20 04:46:22;;;;;;;5.15;3.92;;;;;;;27.06;47.26;101145.34;5056735;28;20071;-57
2023/06/20 04:48:49;;;;;;;4.68;4.00;;;;;;;27.06;47.14;101149.91;5073199;28;20523;-57
2023/06/20 04:51:17;;;;;;;5.57;4.07;;;;;;;27.06;47.30;101144.47;5073596;28;20049;-57
2023/06/20 04:53:48;;;;;;;8.15;3.88;;;;;;;27.06;47.37;101149.91;5074659;28;20048;-58
2023/06/20 04:56:16;;;;;;;4.53;3.45;;;;;;;27.05;47.25;101157.22;5074814;28;20048;-57
2023/06/20 04:58:45;;;;;;;5.95;3.67;;;;;;;27.05;47.12;101156.38;5074733;28;20056;-57
2023/06/20 05:01:15;;;;;;;4.40;3.08;;;;;;;27.05;47.28;101159.94;5074867;28;20045;-54
2023/06/20 05:03:44;;;;;;;6.50;4.50;;;;;;;27.05;47.31;101149.06;5073624;28;20048;-52
2023/06/20 05:06:18;;;;;;;5.63;4.00;;;;;;;27.05;47.59;101149.06;5073399;28;20293;-54
2023/06/20 05:08:47;;;;;;;6.93;4.50;;;;;;;27.06;47.55;101149.91;5073198;28;20061;-54
2023/06/20 05:11:14;;;;;;;5.15;3.90;;;;;;;27.05;47.66;101153.66;5072876;28;20052;-57
2023/06/20 05:13:42;;;;;;;5.47;3.60;;;;;;;27.05;47.59;101149.06;5074328;28;20439;-57
2023/06/20 05:16:09;;;;;;;4.63;3.88;;;;;;;27.06;47.90;101156.22;5074185;28;20377;-57
2023/06/20 05:18:37;;;;;;;4.72;3.95;;;;;;;27.06;47.70;101158.94;5074066;28;20510;-57
2023/06/20 05:21:04;;;;;;;4.18;3.55;;;;;;;27.06;48.06;101166.22;5072993;28;20044;-54
2023/06/20 05:23:32;;;;;;;4.72;3.97;;;;;;;27.06;48.12;101156.22;5074398;28;20366;-53
2023/06/20 05:26:01;;;;;;;4.50;3.85;;;;;;;27.06;48.18;101172.53;5074428;28;20041;-53
2023/06/20 05:28:28;;;;;;;5.38;3.50;;;;;;;27.06;47.99;101169.81;5074203;28;20422;-54
2023/06/20 05:30:56;;;;;;;4.50;3.35;;;;;;;27.07;48.23;101170.66;5074418;28;20045;-53
2023/06/20 05:33:24;;;;;;;5.95;3.60;;;;;;;27.06;48.18;101169.81;5074176;28;20044;-53
2023/06/20 05:35:51;;;;;;;5.18;4.05;;;;;;;27.07;48.29;101170.66;5074281;28;20056;-53
2023/06/20 05:38:19;;;;;;;4.80;4.13;;;;;;;27.06;48.23;101164.38;5074199;28;20404;-54
2023/06/20 05:40:46;;;;;;;4.68;3.85;;;;;;;27.07;48.46;101171.50;5074085;28;20045;-57
2023/06/20 05:43:13;;;;;;;5.35;4.35;;;;;;;27.07;48.24;101171.50;5074019;28;20052;-57
2023/06/20 05:45:41;;;;;;;4.75;4.03;;;;;;;27.07;48.60;101174.22;5074085;28;20377;-57
2023/06/20 05:48:10;;;;;;;4.50;4.00;;;;;;;27.07;48.94;101166.06;5073829;28;20052;-57
2023/06/20 05:50:38;;;;;;;4.30;3.55;;;;;;;27.09;48.60;101182.19;5074322;28;20048;-58
2023/06/20 05:53:07;;;;;;;5.47;3.53;;;;;;;27.07;48.70;101185.09;5074730;28;20048;-55
2023/06/20 05:55:34;;;;;;;5.07;4.43;;;;;;;27.08;48.91;101185.94;5073904;28;20049;-55
2023/06/20 05:58:02;;;;;;;5.53;3.97;;;;;;;27.09;48.91;101183.03;5073830;28;20051;-53
2023/06/20 06:00:29;;;;;;;5.80;3.80;;;;;;;27.08;49.02;101175.91;5073188;28;20060;-55
2023/06/20 06:02:56;;;;;;;6.03;3.80;;;;;;;27.09;49.02;101179.47;5073322;28;20071;-57
2023/06/20 06:05:24;;;;;;;4.72;4.07;;;;;;;27.09;48.98;101180.31;5073489;28;20492;-53
2023/06/20 06:07:52;;;;;;;4.28;3.88;;;;;;;27.08;49.19;101184.06;5073633;28;20044;-53
2023/06/20 06:10:19;;;;;;;4.30;3.60;;;;;;;27.09;49.01;101193.91;5073616;28;20400;-54
2023/06/20 06:12:47;;;;;;;4.72;3.28;;;;;;;27.10;49.31;101192.06;5072462;28;20044;-55
2023/06/20 06:15:14;;;;;;;4.50;3.63;;;;;;;27.10;49.48;101187.50;5073628;28;20056;-53
2023/06/20 06:17:41;;;;;;;4.50;3.70;;;;;;;27.10;49.60;101195.66;5072304;28;20044;-52
2023/06/20 06:20:17;;;;;;;4.32;3.53;;;;;;;27.10;49.59;101201.09;5073555;28;20059;-55
2023/06/20 06:22:45;;;;;;;4.63;3.70;;;;;;;27.11;49.85;101189.19;5073695;28;20045;-52
2023/06/20 06:25:13;;;;;;;4.82;3.72;;;;;;;27.13;49.60;101188.16;5073367;28;20087;-51
2023/06/20 06:27:41;;;;;;;6.07;3.83;;;;;;;27.13;49.68;101182.72;5073475;28;20055;-53
2023/06/20 06:30:08;;;;;;;4.43;3.60;;;;;;;27.13;49.04;101183.56;5073259;28;20080;-53
2023/06/20 06:32:36;;;;;;;6.45;3.65;;;;;;;27.13;48.68;101180.00;5073420;28;20051;-56
2023/06/20 06:35:06;;;;;;;8.27;3.50;;;;;;;27.13;48.48;101182.72;5073410;28;20049;-56
2023/06/20 06:37:34;;;;;;;4.53;3.40;;;;;;;27.10;47.92;101182.06;5073205;28;20049;-54
2023/06/20 06:40:04;;;;;;;6.05;3.45;;;;;;;27.09;47.70;101185.75;5073326;28;20041;-55
2023/06/20 06:42:32;;;;;;;5.32;3.38;;;;;;;27.08;47.27;101199.50;5073115;28;20522;-55
2023/06/20 06:45:01;;;;;;;4.45;3.67;;;;;;;27.07;45.96;101190.53;5073244;28;20040;-55
2023/06/20 06:47:29;;;;;;;4.43;3.72;;;;;;;27.04;45.17;101201.72;5072120;28;20488;-55
2023/06/20 06:49:56;;;;;;;4.78;3.70;;;;;;;27.03;44.68;101204.63;5073324;28;20047;-57
2023/06/20 06:52:24;;;;;;;5.38;4.07;;;;;;;27.02;44.78;101205.63;5072967;28;20397;-55
2023/06/20 06:54:51;;;;;;;4.75;3.42;;;;;;;27.03;45.28;101205.47;5071611;28;20485;-57
2023/06/20 06:57:18;;;;;;;5.28;3.92;;;;;;;27.05;45.19;101218.88;5072649;28;20048;-56
2023/06/20 06:59:46;;;;;;;4.53;3.92;;;;;;;27.05;44.94;101222.44;5072456;28;20048;-57
2023/06/20 07:02:13;;;;;;;7.03;4.10;;;;;;;27.04;44.67;101212.59;5077290;28;20472;-57
2023/06/20 07:04:41;;;;;;;5.22;4.28;;;;;;;27.03;44.41;101219.06;5091996;28;20051;-56
2023/06/20 07:07:08;;;;;;;4.63;3.63;;;;;;;27.04;44.21;101225.34;5092951;28;20047;-56
2023/06/20 07:09:38;;;;;;;4.70;4.03;;;;;;;27.04;44.52;101218.03;5093009;28;20055;-55
2023/06/20 07:12:06;;;;;;;6.18;4.32;;;;;;;27.03;44.03;101227.22;5092876;28;20040;-59
2023/06/20 07:14:34;;;;;;;5.25;3.92;;;;;;;27.01;43.76;101223.81;5093042;28;20476;-60
2023/06/20 07:17:02;;;;;;;5.10;3.85;;;;;;;27.01;43.84;101226.53;5092815;28;20043;-60
2023/06/20 07:19:32;;;;;;;4.38;3.78;;;;;;;27.03;44.25;101223.66;5092627;28;20048;-60
2023/06/20 07:22:00;;;;;;;7.07;4.30;;;;;;;27.03;44.28;101232.66;5092270;28;20036;-60
2023/06/20 07:24:27;;;;;;;6.35;3.72;;;;;;;27.04;44.24;101228.91;5092680;28;20040;-59
2023/06/20 07:26:55;;;;;;;5.95;4.45;;;;;;;27.05;44.70;101225.16;5092017;28;20044;-59
2023/06/20 07:29:22;;;;;;;5.97;3.83;;;;;;;27.08;44.55;101232.13;5092031;28;20052;-60
2023/06/20 07:31:49;;;;;;;5.68;3.95;;;;;;;27.10;44.53;101227.38;5092238;28;20048;-56
2023/06/20 07:34:17;;;;;;;5.47;4.15;;;;;;;27.12;44.33;101233.50;5091728;28;20388;-56
2023/06/20 07:36:44;;;;;;;6.18;4.22;;;;;;;27.13;44.09;101227.03;5079845;28;20048;-56
2023/06/20 07:39:12;;;;;;;4.70;3.67;;;;;;;27.14;44.33;101226.00;5091458;28;20534;-55
2023/06/20 07:41:39;;;;;;;7.95;3.72;;;;;;;27.16;43.90;101226.69;5092544;28;20070;-56
2023/06/20 07:44:08;;;;;;;5.75;3.85;;;;;;;27.17;43.52;101232.97;5092340;28;20047;-56
2023/06/20 07:46:35;;;;;;;5.40;4.00;;;;;;;27.17;42.87;101228.38;5092574;28;20051;-56
2023/06/20 07:49:02;;;;;;;6.25;3.67;;;;;;;27.18;42.92;101242.81;5093121;28;20052;-56
2023/06/20 07:51:33;;;;;;;5.22;3.78;;;;;;;27.18;42.16;101240.94;5096137;28;20059;-56
2023/06/20 07:54:00;;;;;;;5.22;3.90;;;;;;;27.18;41.58;101240.09;5095690;28;20044;-55
2023/06/20 07:56:28;;;;;;;7.72;4.55;;;;;;;27.18;41.26;101243.66;5095607;28;20035;-54
2023/06/20 07:58:56;;;;;;;5.40;4.38;;;;;;;27.16;41.48;101244.88;5096074;28;20044;-55
2023/06/20 08:01:23;;;;;;;5.40;3.90;;;;;;;27.17;41.50;101250.13;5095949;28;20055;-56
2023/06/20 08:03:50;;;;;;;5.70;4.22;;;;;;;27.17;41.57;101246.56;5095913;28;20052;-56
2023/06/20 08:06:18;;;;;;;5.00;4.07;;;;;;;27.17;41.36;101246.56;5095606;28;20055;-56
2023/06/20 08:08:45;;;;;;;5.05;4.03;;;;;;;27.17;41.21;101247.41;5095743;28;20052;-56
2023/06/20 08:11:13;;;;;;;5.55;4.57;;;;;;;27.18;41.52;101240.94;5095709;28;20059;-58
2023/06/20 08:13:40;;;;;;;6.25;4.22;;;;;;;27.21;41.80;101239.75;5095579;28;20044;-58
2023/06/20 08:16:08;;;;;;;5.55;4.28;;;;;;;27.20;41.75;101246.22;5095528;28;20047;-58
2023/06/20 08:18:37;;;;;;;4.93;4.07;;;;;;;27.21;41.28;101246.03;5095586;28;20074;-58
2023/06/20 08:21:04;;;;;;;4.03;3.50;;;;;;;27.22;41.09;101253.16;5095404;28;20044;-58
2023/06/20 08:23:32;;;;;;;6.53;4.40;;;;;;;27.23;41.15;101244.03;5095253;28;20040;-58
2023/06/20 08:25:59;;;;;;;5.50;3.80;;;;;;;27.24;40.34;101247.59;5095186;28;20043;-58
2023/06/20 08:28:26;;;;;;;6.05;4.20;;;;;;;27.23;40.54;101251.31;5095015;28;20048;-59
2023/06/20 08:30:54;;;;;;;5.35;4.03;;;;;;;27.23;40.80;101248.59;5095151;28;20044;-58
2023/06/20 08:33:21;;;;;;;4.75;3.80;;;;;;;27.24;41.09;101244.84;5095227;28;20051;-59
2023/06/20 08:35:50;;;;;;;5.65;3.67;;;;;;;27.25;41.03;101249.25;5094889;28;20519;-58
2023/06/20 08:38:18;;;;;;;5.88;3.70;;;;;;;27.27;41.58;101249.97;5095163;28;20044;-58
2023/06/20 08:40:45;;;;;;;5.10;3.58;;;;;;;27.28;41.90;101252.50;5095015;28;20043;-57
2023/06/20 08:43:16;;;;;;;5.10;3.78;;;;;;;27.29;41.75;101247.91;5094797;28;20044;-55
2023/06/20 08:45:44;;;;;;;6.05;3.95;;;;;;;27.30;41.88;101252.31;5094675;28;20046;-56
2023/06/20 08:48:11;;;;;;;4.30;3.42;;;;;;;27.32;41.88;101255.72;5093914;28;20044;-56
2023/06/20 08:50:39;;;;;;;3.90;3.42;;;;;;;27.32;41.61;101251.13;5094627;28;20047;-57
2023/06/20 08:53:09;;;;;;;4.30;3.88;;;;;;;27.35;42.24;101255.38;5094714;28;20040;-59
2023/06/20 08:55:38;;;;;;;4.22;3.35;;;;;;;27.35;41.95;101253.50;5094588;28;20051;-58
2023/06/20 08:58:09;;;;;;;4.50;3.60;;;;;;;27.36;42.24;101254.34;5094982;28;20052;-58
2023/06/20 09:00:37;;;;;;;4.53;3.80;;;;;;;27.38;42.20;101249.56;5092460;28;20048;-58
2023/06/20 09:03:05;;;;;;;7.47;3.88;;;;;;;27.38;42.31;101244.13;5073421;28;20052;-58
2023/06/20 09:05:41;;;;;;;5.25;3.70;;;;;;;27.39;42.21;101253.13;5074567;28;20044;-58
2023/06/20 09:08:13;;;;;;;4.55;3.60;;;;;;;27.40;42.29;101254.84;5074476;28;20044;-59
2023/06/20 09:10:40;;;;;;;5.88;4.30;;;;;;;27.40;42.48;101244.81;5074452;28;20052;-58
2023/06/20 09:13:10;;;;;;;4.60;3.55;;;;;;;27.41;42.70;101241.06;5074420;28;20384;-58
2023/06/20 09:15:38;;;;;;;5.72;4.00;;;;;;;27.41;42.40;101235.63;5074322;28;20052;-58
2023/06/20 09:18:08;;;;;;;4.90;3.78;;;;;;;27.41;42.76;101235.63;5074257;28;20380;-58
2023/06/20 09:20:35;;;;;;;4.07;3.33;;;;;;;27.42;42.48;101231.88;5074174;28;20060;-56
2023/06/20 09:23:04;;;;;;;5.07;4.03;;;;;;;27.42;43.00;101226.44;5073974;28;20507;-58
2023/06/20 09:25:31;;;;;;;4.60;3.72;;;;;;;27.43;42.89;101230.88;5073954;28;20052;-58
2023/06/20 09:27:59;;;;;;;4.68;3.75;;;;;;;27.42;42.51;101217.44;5094110;28;20503;-58
2023/06/20 09:30:30;;;;;;;3.97;3.47;;;;;;;27.44;42.58;101223.56;5093751;28;20056;-58
2023/06/20 09:33:05;;;;;;;4.05;3.30;;;;;;;27.44;42.53;101221.69;5093713;28;20040;-58
2023/06/20 09:35:33;;;;;;;4.85;4.32;;;;;;;27.45;42.68;101223.38;5093834;28;20460;-58
2023/06/20 09:38:04;;;;;;;5.30;4.00;;;;;;;27.44;42.19;101229.84;5093534;28;20483;-58
2023/06/20 09:40:45;;;;;;;5.00;4.10;;;;;;;27.45;41.86;101236.97;5093627;28;20056;-58
2023/06/20 09:43:13;;;;;;;5.43;4.13;;;;;;;27.46;39.66;101235.09;5093699;28;20043;-58
2023/06/20 09:45:40;;;;;;;4.32;3.45;;;;;;;27.45;39.11;101225.25;5092659;28;20048;-58
2023/06/20 09:48:09;;;;;;;4.72;3.80;;;;;;;27.46;39.00;101219.63;5093731;28;20052;-58
2023/06/20 09:50:38;;;;;;;3.85;3.10;;;;;;;27.46;38.86;101214.19;5093412;28;20048;-55
2023/06/20 09:53:19;;;;;;;5.15;3.63;;;;;;;27.47;38.74;101223.22;5093365;28;20043;-56
2023/06/20 09:55:47;;;;;;;5.80;4.43;;;;;;;27.48;38.51;101223.03;5093434;28;20048;-56
2023/06/20 09:58:19;;;;;;;4.88;3.90;;;;;;;27.48;38.30;101214.88;5073489;28;20468;-55
2023/06/20 10:00:46;;;;;;;5.05;4.22;;;;;;;27.48;38.46;101214.88;5073792;28;20056;-56
2023/06/20 10:03:14;;;;;;;5.10;3.78;;;;;;;27.48;38.60;101214.88;5093752;28;20388;-55
2023/06/20 10:05:44;;;;;;;6.32;4.13;;;;;;;27.50;38.44;101218.25;5093560;28;20047;-55
2023/06/20 10:08:16;;;;;;;4.70;4.03;;;;;;;27.50;38.74;101212.81;5093639;28;20416;-56
2023/06/20 10:10:45;;;;;;;4.27;3.70;;;;;;;27.50;39.09;101220.97;5093827;28;20044;-57
2023/06/20 10:13:14;;;;;;;5.55;3.53;;;;;;;27.51;39.01;101219.97;5092413;28;20280;-56
2023/06/20 10:15:42;;;;;;;3.90;3.38;;;;;;;27.52;39.25;101218.09;5093424;28;20063;-55
2023/06/20 10:18:41;;;;;;;4.43;3.85;;;;;;;27.53;39.51;101204.28;5092939;28;20044;-56
2023/06/20 10:21:13;;;;;;;4.70;4.00;;;;;;;27.54;39.63;101205.97;5070066;28;20393;-55
2023/06/20 10:23:41;;;;;;;4.23;3.50;;;;;;;27.56;39.90;101203.09;5093128;28;20044;-56
2023/06/20 10:26:10;;;;;;;6.53;3.95;;;;;;;27.56;39.99;101203.94;5093190;28;20055;-56
2023/06/20 10:28:39;;;;;;;5.05;3.60;;;;;;;27.57;40.02;101200.19;5093109;28;20063;-56
2023/06/20 10:31:07;;;;;;;6.00;4.22;;;;;;;27.56;40.12;101203.94;5093110;28;20472;-55
2023/06/20 10:33:36;;;;;;;4.55;3.80;;;;;;;27.57;40.03;101197.47;5093351;28;20036;-55
2023/06/20 10:36:03;;;;;;;4.70;3.85;;;;;;;27.57;40.28;101202.06;5092264;28;20051;-55
2023/06/20 10:38:40;;;;;;;5.40;3.85;;;;;;;27.59;40.16;101200.88;5093378;28;20059;-56
2023/06/20 10:41:14;;;;;;;4.68;3.88;;;;;;;27.60;40.19;101197.13;5093135;28;20048;-58
2023/06/20 10:44:00;;;;;;;5.25;3.83;;;;;;;27.60;40.01;101197.13;5093084;28;20036;-58
2023/06/20 10:46:37;;;;;;;5.43;3.65;;;;;;;27.61;40.22;101197.97;5093042;28;20043;-58
2023/06/20 10:49:06;;;;;;;5.22;4.20;;;;;;;27.61;40.33;101195.25;5090307;28;20051;-58
2023/06/20 10:51:43;;;;;;;5.78;4.32;;;;;;;27.62;40.43;101194.22;5076333;28;20043;-58
2023/06/20 10:54:12;;;;;;;4.95;4.03;;;;;;;27.63;40.53;101195.06;5093245;28;20044;-59
2023/06/20 10:56:40;;;;;;;5.50;3.90;;;;;;;27.62;40.42;101194.22;5092941;28;20360;-59
2023/06/20 10:59:08;;;;;;;5.28;3.90;;;;;;;27.65;40.91;101187.59;5091954;28;20055;-58
2023/06/20 11:01:37;;;;;;;7.20;3.97;;;;;;;27.65;40.87;101190.31;5092797;28;20071;-55
2023/06/20 11:04:11;;;;;;;5.45;3.83;;;;;;;27.65;40.76;101191.16;5092614;28;20373;-55
2023/06/20 11:06:39;;;;;;;5.65;4.20;;;;;;;27.65;41.19;101203.91;5092362;28;20044;-56
2023/06/20 11:09:20;;;;;;;4.75;4.15;;;;;;;27.67;41.00;101199.13;5092711;28;20044;-55
2023/06/20 11:11:48;;;;;;;6.15;4.28;;;;;;;27.71;40.13;101186.84;5092676;28;20396;-55
2023/06/20 11:14:21;;;;;;;5.25;4.40;;;;;;;27.72;39.67;101175.81;5092820;28;20051;-56
2023/06/20 11:16:50;;;;;;;5.57;3.85;;;;;;;27.74;39.80;101181.09;5092586;28;20051;-56
2023/06/20 11:19:22;;;;;;;5.22;3.90;;;;;;;27.73;40.09;101174.81;5092698;28;20048;-57
2023/06/20 11:22:03;;;;;;;5.45;3.80;;;;;;;27.75;40.28;101171.91;5092511;28;20044;-50
2023/06/20 11:24:33;;;;;;;5.30;4.05;;;;;;;27.75;40.06;101175.50;5094355;28;20047;-51
2023/06/20 11:27:11;;;;;;;4.68;3.88;;;;;;;27.77;39.95;101178.03;5096348;28;20055;-51
2023/06/20 11:29:39;;;;;;;6.22;4.13;;;;;;;27.78;39.94;101169.69;5096535;28;20048;-49
2023/06/20 11:32:08;;;;;;;4.82;3.92;;;;;;;27.79;40.17;101168.66;5096342;28;20039;-59
2023/06/20 11:34:59;;;;;;;5.10;4.38;;;;;;;27.79;40.12;101168.66;5096521;28;20055;-59
2023/06/20 11:37:30;;;;;;;4.60;3.97;;;;;;;27.79;40.20;101181.41;5076053;28;20044;-59